createdAt,value
2023-03-14T00:00:48.690Z,60.91
2023-03-14T00:02:53.168Z,61.31
2023-03-14T00:04:55.647Z,61.06
2023-03-14T00:06:57.219Z,61.25
2023-03-14T00:08:58.792Z,60.54
2023-03-14T00:11:05.725Z,60.90
2023-03-14T00:13:07.496Z,60.62
2023-03-14T00:15:09.981Z,60.83
2023-03-14T00:17:13.054Z,60.54
2023-03-14T00:19:14.845Z,60.48
2023-03-14T00:21:16.527Z,60.57
2023-03-14T00:23:18.126Z,60.70
2023-03-14T00:25:19.892Z,60.97
2023-03-14T00:27:21.515Z,59.83
2023-03-14T00:29:23.413Z,60.37
2023-03-14T00:31:24.940Z,60.29
2023-03-14T00:33:27.871Z,60.13
2023-03-14T00:35:29.460Z,59.77
2023-03-14T00:37:31.009Z,60.17
2023-03-14T00:39:32.564Z,60.28
2023-03-14T00:41:34.256Z,60.34
2023-03-14T00:43:36.117Z,60.00
2023-03-14T00:45:37.705Z,60.22
2023-03-14T00:47:39.275Z,60.25
2023-03-14T00:49:42.215Z,60.29
2023-03-14T00:51:44.190Z,59.94
2023-03-14T00:53:45.843Z,60.00
2023-03-14T00:55:47.636Z,59.88
2023-03-14T00:57:49.237Z,60.44
2023-03-14T00:59:51.900Z,60.05
2023-03-14T01:01:53.479Z,59.94
2023-03-14T01:03:56.204Z,60.18
2023-03-14T01:06:10.116Z,60.35
2023-03-14T01:08:11.994Z,60.64
2023-03-14T01:10:13.833Z,60.37
2023-03-14T01:12:15.545Z,60.66
2023-03-14T01:14:17.314Z,60.96
2023-03-14T01:16:20.702Z,61.19
2023-03-14T01:18:22.331Z,60.95
2023-03-14T01:20:23.899Z,61.22
2023-03-14T01:22:26.982Z,61.18
2023-03-14T01:24:28.551Z,61.22
2023-03-14T01:26:32.423Z,61.03
2023-03-14T01:28:34.068Z,61.37
2023-03-14T01:30:35.703Z,61.72
2023-03-14T01:32:37.879Z,61.55
2023-03-14T01:34:39.782Z,61.42
2023-03-14T01:36:41.386Z,61.60
2023-03-14T01:38:44.574Z,61.65
2023-03-14T01:40:46.182Z,61.85
2023-03-14T01:42:54.783Z,61.41
2023-03-14T01:44:58.245Z,61.60
2023-03-14T01:46:59.817Z,61.35
2023-03-14T01:49:07.159Z,61.17
2023-03-14T01:51:15.358Z,61.07
2023-03-14T01:53:17.701Z,61.66
2023-03-14T01:55:25.420Z,61.39
2023-03-14T01:57:31.132Z,61.57
2023-03-14T01:59:35.353Z,61.31
2023-03-14T02:01:39.000Z,61.42
2023-03-14T02:03:48.226Z,61.76
2023-03-14T02:05:51.431Z,61.52
2023-03-14T02:07:55.331Z,61.84
2023-03-14T02:09:59.785Z,62.00
2023-03-14T02:12:02.865Z,61.65
2023-03-14T02:14:04.843Z,61.52
2023-03-14T02:16:07.566Z,61.72
2023-03-14T02:18:10.834Z,61.46
2023-03-14T02:20:25.592Z,61.53
2023-03-14T02:22:27.217Z,61.21
2023-03-14T02:24:35.841Z,61.13
2023-03-14T02:26:42.662Z,61.13
2023-03-14T02:28:45.745Z,60.65
2023-03-14T02:30:47.682Z,60.38
2023-03-14T02:32:52.678Z,60.40
2023-03-14T02:34:57.305Z,60.09
2023-03-14T02:36:59.812Z,60.11
2023-03-14T02:39:11.783Z,59.92
2023-03-14T02:41:13.965Z,60.13
2023-03-14T02:43:15.508Z,59.88
2023-03-14T02:45:43.831Z,60.21
2023-03-14T02:47:49.927Z,60.88
2023-03-14T02:49:55.336Z,60.89
2023-03-14T02:51:56.900Z,60.84
2023-03-14T02:53:58.632Z,60.87
2023-03-14T02:56:00.888Z,60.83
2023-03-14T02:58:02.436Z,60.95
2023-03-14T03:00:05.466Z,61.10
2023-03-14T03:02:08.388Z,60.88
2023-03-14T03:04:09.949Z,60.90
2023-03-14T03:06:11.525Z,60.33
2023-03-14T03:08:13.086Z,60.40
2023-03-14T03:10:14.963Z,60.43
2023-03-14T03:12:16.635Z,60.65
2023-03-14T03:14:18.185Z,60.82
2023-03-14T03:16:19.833Z,60.73
2023-03-14T03:18:22.767Z,61.05
2023-03-14T03:20:24.361Z,61.38
2023-03-14T03:22:26.010Z,61.16
2023-03-14T03:24:27.760Z,61.17
2023-03-14T03:26:29.276Z,61.25
2023-03-14T03:28:30.876Z,61.13
2023-03-14T03:30:32.456Z,61.46
2023-03-14T03:32:34.160Z,61.63
2023-03-14T03:34:37.527Z,61.47
2023-03-14T03:36:39.066Z,61.50
2023-03-14T03:38:40.559Z,61.17
2023-03-14T03:40:43.492Z,60.81
2023-03-14T03:42:45.027Z,61.00
2023-03-14T03:44:46.560Z,60.89
2023-03-14T03:46:48.216Z,60.84
2023-03-14T03:48:49.892Z,60.69
2023-03-14T03:50:52.924Z,60.43
2023-03-14T03:52:54.509Z,60.22
2023-03-14T03:54:56.069Z,60.20
2023-03-14T03:56:57.626Z,60.09
2023-03-14T03:58:59.191Z,60.28
2023-03-14T04:01:00.757Z,60.26
2023-03-14T04:03:02.538Z,60.23
2023-03-14T04:05:04.393Z,60.41
2023-03-14T04:07:07.459Z,60.24
2023-03-14T04:09:09.125Z,60.23
2023-03-14T04:11:11.549Z,60.37
2023-03-14T04:13:13.066Z,60.07
2023-03-14T04:15:14.995Z,60.30
2023-03-14T04:17:16.768Z,59.95
2023-03-14T04:19:18.315Z,59.65
2023-03-14T04:21:20.109Z,59.56
2023-03-14T04:23:24.317Z,59.22
2023-03-14T04:25:25.885Z,59.51
2023-03-14T04:27:27.415Z,59.24
2023-03-14T04:29:28.994Z,59.04
2023-03-14T04:31:30.617Z,58.96
2023-03-14T04:33:32.162Z,59.12
2023-03-14T04:35:34.429Z,58.90
2023-03-14T04:37:36.419Z,58.45
2023-03-14T04:39:39.785Z,58.71
2023-03-14T04:41:41.407Z,58.87
2023-03-14T04:43:42.968Z,58.55
2023-03-14T04:45:44.499Z,58.68
2023-03-14T04:47:46.064Z,58.60
2023-03-14T04:49:47.602Z,58.68
2023-03-14T04:51:49.330Z,58.52
2023-03-14T04:53:50.959Z,58.44
2023-03-14T04:55:56.129Z,58.69
2023-03-14T04:57:57.733Z,58.50
2023-03-14T04:59:59.312Z,57.90
2023-03-14T05:02:00.968Z,58.00
2023-03-14T05:04:07.191Z,58.44
2023-03-14T05:06:16.776Z,58.34
2023-03-14T05:08:21.128Z,58.08
2023-03-14T05:10:25.528Z,57.93
2023-03-14T05:12:31.516Z,58.09
2023-03-14T05:14:36.111Z,58.02
2023-03-14T05:16:40.594Z,58.18
2023-03-14T05:18:51.778Z,58.38
2023-03-14T05:21:30.272Z,57.54
2023-03-14T05:23:34.687Z,57.92
2023-03-14T05:25:39.164Z,57.84
2023-03-14T05:27:59.790Z,57.65
2023-03-14T05:30:01.727Z,57.02
2023-03-14T05:32:06.187Z,57.70
2023-03-14T05:37:13.146Z,57.12
2023-03-14T05:39:18.177Z,57.01
2023-03-14T05:41:19.747Z,56.74
2023-03-14T05:43:33.458Z,56.24
2023-03-14T05:45:47.165Z,56.23
2023-03-14T05:48:41.139Z,56.35
2023-03-14T05:51:01.297Z,56.60
2023-03-14T05:53:12.025Z,56.52
2023-03-14T05:55:56.821Z,56.74
2023-03-14T05:58:08.655Z,56.29
2023-03-14T06:00:18.239Z,56.61
2023-03-14T06:04:59.651Z,55.95
2023-03-14T06:07:03.870Z,56.21
2023-03-14T06:09:29.824Z,56.47
2023-03-14T06:11:48.749Z,55.90
2023-03-14T06:14:18.071Z,56.11
2023-03-14T06:16:36.888Z,56.38
2023-03-14T06:18:39.250Z,56.35
2023-03-14T06:21:23.897Z,56.42
2023-03-14T06:26:39.931Z,56.16
2023-03-14T06:28:59.465Z,55.98
2023-03-14T06:31:25.956Z,56.42
2023-03-14T06:33:28.858Z,56.13
2023-03-14T06:39:01.559Z,55.92
2023-03-14T06:47:19.182Z,55.55
2023-03-14T06:50:07.926Z,55.18
2023-03-14T06:52:05.474Z,55.70
2023-03-14T06:54:10.497Z,56.14
2023-03-14T06:56:18.228Z,55.80
2023-03-14T06:58:57.022Z,55.46
2023-03-14T07:01:21.081Z,55.69
2023-03-14T07:03:54.396Z,56.00
2023-03-14T07:06:17.024Z,56.33
2023-03-14T07:08:27.938Z,56.34
2023-03-14T07:10:29.523Z,56.35
2023-03-14T07:12:37.068Z,55.66
2023-03-14T07:14:45.557Z,56.05
2023-03-14T07:16:50.018Z,55.88
2023-03-14T07:19:06.358Z,56.30
2023-03-14T07:26:11.666Z,55.31
2023-03-14T07:28:16.164Z,55.16
2023-03-14T07:30:52.778Z,55.24
2023-03-14T07:32:54.424Z,55.83
2023-03-14T07:35:41.728Z,55.20
2023-03-14T07:38:15.514Z,54.51
2023-03-14T07:40:27.506Z,54.85
2023-03-14T07:42:52.013Z,55.03
2023-03-14T07:47:18.241Z,55.45
2023-03-14T07:49:28.891Z,55.46
2023-03-14T07:51:33.769Z,55.26
2023-03-14T07:53:51.799Z,54.94
2023-03-14T07:55:56.085Z,55.27
2023-03-14T08:01:03.562Z,55.68
2023-03-14T08:03:05.176Z,55.14
2023-03-14T08:05:40.410Z,54.92
2023-03-14T08:07:42.561Z,55.44
2023-03-14T08:09:49.897Z,55.78
2023-03-14T08:12:40.395Z,55.36
2023-03-14T08:17:00.571Z,55.73
2023-03-14T08:19:05.165Z,55.37
2023-03-14T08:21:10.055Z,55.78
2023-03-14T08:23:26.653Z,55.71
2023-03-14T08:25:44.940Z,55.93
2023-03-14T08:28:20.474Z,55.98
2023-03-14T08:30:23.174Z,55.82
2023-03-14T08:32:25.057Z,55.56
2023-03-14T08:34:41.171Z,56.48
2023-03-14T08:37:19.637Z,55.71
2023-03-14T08:39:36.285Z,55.30
2023-03-14T08:42:05.191Z,54.71
2023-03-14T08:44:07.436Z,54.70
2023-03-14T08:46:11.774Z,54.55
2023-03-14T08:48:19.146Z,54.70
2023-03-14T08:52:57.584Z,53.87
2023-03-14T08:54:59.291Z,54.15
2023-03-14T08:57:02.238Z,54.21
2023-03-14T08:59:22.358Z,54.10
2023-03-14T09:01:45.443Z,54.29
2023-03-14T09:03:50.354Z,54.27
2023-03-14T09:06:10.985Z,54.11
2023-03-14T09:08:15.173Z,54.80
2023-03-14T09:10:17.237Z,55.46
2023-03-14T09:15:29.289Z,54.82
2023-03-14T09:17:37.171Z,55.09
2023-03-14T09:19:47.944Z,55.37
2023-03-14T09:22:20.328Z,55.30
2023-03-14T09:24:49.006Z,54.97
2023-03-14T09:26:50.597Z,55.96
2023-03-14T09:28:52.148Z,55.31
2023-03-14T09:31:16.867Z,55.83
2023-03-14T09:33:19.070Z,55.81
2023-03-14T09:35:20.653Z,56.38
2023-03-14T09:37:31.250Z,55.89
2023-03-14T09:39:52.308Z,56.47
2023-03-14T09:42:25.986Z,56.08
2023-03-14T09:49:52.831Z,55.61
2023-03-14T09:54:13.214Z,55.91
2023-03-14T09:55:38.471Z,55.82
2023-03-14T10:00:39.836Z,55.96
2023-03-14T10:03:32.904Z,56.06
2023-03-14T10:05:48.409Z,56.00
2023-03-14T10:08:06.029Z,56.50
2023-03-14T10:10:12.062Z,56.84
2023-03-14T10:12:20.225Z,56.98
2023-03-14T10:15:16.314Z,57.77
2023-03-14T10:17:43.403Z,57.15
2023-03-14T10:19:59.196Z,57.39
2023-03-14T10:24:56.230Z,57.36
2023-03-14T10:27:19.751Z,57.79
2023-03-14T10:30:03.512Z,57.69
2023-03-14T10:32:20.335Z,57.72
2023-03-14T10:34:30.807Z,57.73
2023-03-14T10:37:27.452Z,57.95
2023-03-14T10:39:56.579Z,56.89
2023-03-14T10:42:26.181Z,57.34
2023-03-14T10:45:10.377Z,57.62
2023-03-14T10:47:31.860Z,57.16
2023-03-14T10:53:01.380Z,57.43
2023-03-14T10:55:40.706Z,59.59
2023-03-14T10:57:48.338Z,64.25
2023-03-14T10:59:50.948Z,69.64
2023-03-14T11:02:40.173Z,66.29
2023-03-14T11:05:45.119Z,69.55
2023-03-14T11:11:24.740Z,66.34
2023-03-14T11:13:55.237Z,65.64
2023-03-14T11:16:25.017Z,64.92
2023-03-14T11:24:26.780Z,64.23
2023-03-14T11:26:59.954Z,63.79
2023-03-14T11:30:00.267Z,64.24
2023-03-14T11:32:08.874Z,64.14
2023-03-14T11:35:02.437Z,63.96
2023-03-14T11:37:36.712Z,63.83
2023-03-14T11:40:19.125Z,63.67
2023-03-14T11:44:54.653Z,64.02
2023-03-14T11:50:39.569Z,65.27
2023-03-14T11:55:41.568Z,64.07
2023-03-14T11:59:00.859Z,62.84
2023-03-14T12:47:36.996Z,53.20
2023-03-14T12:50:08.285Z,50.45
2023-03-14T12:52:15.636Z,50.74
2023-03-14T12:54:34.760Z,48.97
2023-03-14T12:56:46.535Z,49.78
2023-03-14T12:59:06.793Z,49.81
2023-03-14T13:01:17.759Z,49.73
2023-03-14T13:03:22.076Z,50.62
2023-03-14T13:05:26.810Z,50.12
2023-03-14T13:07:35.079Z,50.74
2023-03-14T13:09:54.977Z,49.92
2023-03-14T13:12:02.663Z,50.75
2023-03-14T13:14:11.110Z,49.90
2023-03-14T13:16:17.567Z,49.28
2023-03-14T13:18:27.167Z,50.49
2023-03-14T13:20:34.635Z,50.55
2023-03-14T13:22:36.212Z,49.71
2023-03-14T13:24:37.764Z,48.57
2023-03-14T13:26:43.526Z,48.79
2023-03-14T13:28:45.194Z,48.77
2023-03-14T13:30:48.810Z,48.45
2023-03-14T13:32:52.198Z,47.49
2023-03-14T13:34:57.509Z,46.35
2023-03-14T13:37:00.665Z,46.32
2023-03-14T13:39:03.679Z,45.93
2023-03-14T13:41:07.688Z,45.86
2023-03-14T13:43:16.474Z,45.12
2023-03-14T13:45:20.499Z,45.03
2023-03-14T13:47:25.275Z,45.32
2023-03-14T13:49:28.835Z,44.85
2023-03-14T13:51:31.385Z,43.61
2023-03-14T13:53:43.915Z,43.89
2023-03-14T13:55:45.618Z,44.48
2023-03-14T13:57:48.891Z,42.22
2023-03-14T14:00:00.926Z,43.31
2023-03-14T14:02:11.886Z,43.47
2023-03-14T14:04:19.065Z,43.15
2023-03-14T14:06:27.433Z,43.57
2023-03-14T14:08:31.467Z,43.63
2023-03-14T14:10:38.181Z,42.61
2023-03-14T14:12:44.810Z,42.27
2023-03-14T14:14:50.760Z,40.79
2023-03-14T14:16:53.743Z,41.08
2023-03-14T14:18:58.023Z,41.42
2023-03-14T14:20:59.853Z,41.27
2023-03-14T14:23:03.708Z,41.43
2023-03-14T14:25:06.680Z,42.41
2023-03-14T14:27:15.271Z,40.66
2023-03-14T14:29:26.964Z,39.01
2023-03-14T14:31:28.673Z,39.38
2023-03-14T14:33:38.457Z,40.05
2023-03-14T14:35:40.358Z,40.10
2023-03-14T14:37:44.537Z,38.69
2023-03-14T14:39:46.358Z,38.87
2023-03-14T14:41:50.346Z,39.09
2023-03-14T14:43:53.579Z,37.63
2023-03-14T14:45:56.522Z,37.27
2023-03-14T14:48:04.293Z,36.14
2023-03-14T14:50:21.828Z,36.86
2023-03-14T14:52:34.731Z,36.57
2023-03-14T14:54:39.736Z,36.18
2023-03-14T14:56:41.471Z,35.91
2023-03-14T14:58:46.265Z,35.54
2023-03-14T15:00:55.474Z,34.32
2023-03-14T15:03:00.911Z,36.02
2023-03-14T15:05:02.772Z,35.05
2023-03-14T15:07:04.430Z,35.76
2023-03-14T15:09:06.581Z,36.99
2023-03-14T15:11:15.697Z,36.26
2023-03-14T15:13:17.329Z,36.77
2023-03-14T15:15:19.332Z,35.40
2023-03-14T15:17:22.539Z,35.76
2023-03-14T15:19:26.811Z,34.89
2023-03-14T15:21:29.352Z,34.21
2023-03-14T15:23:30.902Z,34.50
2023-03-14T15:25:53.528Z,35.17
2023-03-14T15:27:54.033Z,35.88
2023-03-14T15:29:55.640Z,33.92
2023-03-14T15:31:57.420Z,34.00
2023-03-14T15:34:00.373Z,33.36
2023-03-14T15:36:01.998Z,33.14
2023-03-14T15:38:04.140Z,33.48
2023-03-14T15:40:06.979Z,34.14
2023-03-14T15:42:09.000Z,33.09
2023-03-14T15:44:10.649Z,34.64
2023-03-14T15:46:13.370Z,34.27
2023-03-14T15:48:17.120Z,35.10
2023-03-14T15:50:20.105Z,34.77
2023-03-14T15:52:21.649Z,34.38
2023-03-14T15:54:23.156Z,33.18
2023-03-14T15:56:24.682Z,35.36
2023-03-14T15:58:26.350Z,34.27
2023-03-14T16:00:28.144Z,34.29
2023-03-14T16:02:30.207Z,33.65
2023-03-14T16:04:31.801Z,33.64
2023-03-14T16:06:34.710Z,34.01
2023-03-14T16:08:36.371Z,34.13
2023-03-14T16:10:37.927Z,33.56
2023-03-14T16:12:40.175Z,32.58
2023-03-14T16:14:41.803Z,33.79
2023-03-14T16:16:43.383Z,32.85
2023-03-14T16:18:44.937Z,33.54
2023-03-14T16:20:52.701Z,33.44
2023-03-14T16:22:55.596Z,33.02
2023-03-14T16:24:57.234Z,33.75
2023-03-14T16:26:59.068Z,33.73
2023-03-14T16:29:02.038Z,33.88
2023-03-14T16:31:05.260Z,34.26
2023-03-14T16:33:11.383Z,34.31
2023-03-14T16:35:13.676Z,33.40
2023-03-14T16:37:15.188Z,33.97
2023-03-14T16:39:18.783Z,33.80
2023-03-14T16:41:23.181Z,34.76
2023-03-14T16:43:24.817Z,35.44
2023-03-14T16:45:26.566Z,35.21
2023-03-14T16:47:28.078Z,35.52
2023-03-14T16:49:29.617Z,34.53
2023-03-14T16:51:33.876Z,34.76
2023-03-14T16:53:35.846Z,35.04
2023-03-14T16:55:42.434Z,35.43
2023-03-14T16:57:44.392Z,34.99
2023-03-14T16:59:45.907Z,35.41
2023-03-14T17:01:47.504Z,35.55
2023-03-14T17:03:50.792Z,35.28
2023-03-14T17:05:53.004Z,35.57
2023-03-14T17:07:54.554Z,34.87
2023-03-14T17:09:56.166Z,35.55
2023-03-14T17:11:59.085Z,36.11
2023-03-14T17:14:01.456Z,36.19
2023-03-14T17:16:04.010Z,36.06
2023-03-14T17:18:06.328Z,36.91
2023-03-14T17:20:09.485Z,36.25
2023-03-14T17:22:23.326Z,36.91
2023-03-14T17:24:25.714Z,36.83
2023-03-14T17:26:27.366Z,37.41
2023-03-14T17:28:30.489Z,38.35
2023-03-14T17:30:32.109Z,38.05
2023-03-14T17:32:33.743Z,38.26
2023-03-14T17:34:35.518Z,37.04
2023-03-14T17:36:37.121Z,37.57
2023-03-14T17:38:39.344Z,38.03
2023-03-14T17:40:40.900Z,38.49
2023-03-14T17:42:42.723Z,38.74
2023-03-14T17:44:45.582Z,38.35
2023-03-14T17:46:47.284Z,38.79
2023-03-14T17:48:49.209Z,38.62
2023-03-14T17:50:52.417Z,38.54
2023-03-14T17:52:54.499Z,38.58
2023-03-14T17:54:56.044Z,38.35
2023-03-14T17:56:58.396Z,38.52
2023-03-14T17:59:00.045Z,38.82
2023-03-14T18:01:10.633Z,39.02
2023-03-14T18:03:12.165Z,38.69
2023-03-14T18:05:13.775Z,39.64
2023-03-14T18:07:15.464Z,40.06
2023-03-14T18:09:17.530Z,39.10
2023-03-14T18:11:19.138Z,38.95
2023-03-14T18:13:22.000Z,39.25
2023-03-14T18:15:23.536Z,40.01
2023-03-14T18:17:26.889Z,40.18
2023-03-14T18:19:28.551Z,40.55
2023-03-14T18:21:30.081Z,41.00
2023-03-14T18:23:31.653Z,40.81
2023-03-14T18:25:33.300Z,41.28
2023-03-14T18:27:35.097Z,41.82
2023-03-14T18:29:37.116Z,42.41
2023-03-14T18:31:38.698Z,42.28
2023-03-14T18:33:42.041Z,42.41
2023-03-14T18:35:43.720Z,43.05
2023-03-14T18:37:46.209Z,42.89
2023-03-14T18:39:50.937Z,42.90
2023-03-14T18:41:52.600Z,43.26
2023-03-14T18:43:54.519Z,43.12
2023-03-14T18:45:57.799Z,43.19
2023-03-14T18:47:59.382Z,42.64
2023-03-14T18:50:02.647Z,42.67
2023-03-14T18:52:04.655Z,42.37
2023-03-14T18:54:09.976Z,42.42
2023-03-14T18:56:13.718Z,42.10
2023-03-14T18:58:15.484Z,42.03
2023-03-14T19:00:17.853Z,42.06
2023-03-14T19:02:19.460Z,41.56
2023-03-14T19:04:21.074Z,42.37
2023-03-14T19:06:27.983Z,42.42
2023-03-14T19:08:29.685Z,42.17
2023-03-14T19:10:31.276Z,42.56
2023-03-14T19:12:32.842Z,43.00
2023-03-14T19:14:34.659Z,44.17
2023-03-14T19:16:36.281Z,45.44
2023-03-14T19:18:37.949Z,46.54
2023-03-14T19:20:41.085Z,46.59
2023-03-14T19:22:43.975Z,47.66
2023-03-14T19:24:45.545Z,47.24
2023-03-14T19:26:47.261Z,48.31
2023-03-14T19:28:48.799Z,47.82
2023-03-14T19:30:51.568Z,47.71
2023-03-14T19:32:53.399Z,47.74
2023-03-14T19:34:58.155Z,47.31
2023-03-14T19:36:59.737Z,48.02
2023-03-14T19:39:04.385Z,47.30
2023-03-14T19:41:06.511Z,47.53
2023-03-14T19:43:08.648Z,48.20
2023-03-14T19:45:11.233Z,47.39
2023-03-14T19:47:12.841Z,47.81
2023-03-14T19:49:14.493Z,47.63
2023-03-14T19:51:17.006Z,47.08
2023-03-14T19:53:18.522Z,47.50
2023-03-14T19:55:21.717Z,47.63
2023-03-14T19:57:23.233Z,47.61
2023-03-14T19:59:24.914Z,47.56
2023-03-14T20:01:26.580Z,48.26
2023-03-14T20:03:28.208Z,47.77
2023-03-14T20:05:29.847Z,47.28
2023-03-14T20:07:31.470Z,47.73
2023-03-14T20:09:33.074Z,47.61
2023-03-14T20:11:36.376Z,47.56
2023-03-14T20:13:38.170Z,47.40
2023-03-14T20:15:40.239Z,47.36
2023-03-14T20:17:41.755Z,47.85
2023-03-14T20:19:43.652Z,47.68
2023-03-14T20:21:45.269Z,47.49
2023-03-14T20:23:47.913Z,47.52
2023-03-14T20:25:56.026Z,47.49
2023-03-14T20:27:58.990Z,48.34
2023-03-14T20:30:00.828Z,49.31
2023-03-14T20:32:04.566Z,49.94
2023-03-14T20:34:06.346Z,49.94
2023-03-14T20:36:09.088Z,50.03
2023-03-14T20:38:10.791Z,50.33
2023-03-14T20:40:13.011Z,50.54
2023-03-14T20:42:14.710Z,51.45
2023-03-14T20:44:17.715Z,52.00
2023-03-14T20:46:19.433Z,51.68
2023-03-14T20:48:21.524Z,51.82
2023-03-14T20:50:23.181Z,52.32
2023-03-14T20:52:24.826Z,51.79
2023-03-14T20:54:26.471Z,51.44
2023-03-14T20:56:28.066Z,51.59
2023-03-14T20:58:30.030Z,51.74
2023-03-14T21:00:33.065Z,51.77
2023-03-14T21:02:34.688Z,51.49
2023-03-14T21:04:36.393Z,51.28
2023-03-14T21:06:37.995Z,51.76
2023-03-14T21:08:39.754Z,51.68
2023-03-14T21:10:41.393Z,51.22
2023-03-14T21:12:43.123Z,51.77
2023-03-14T21:14:44.965Z,51.41
2023-03-14T21:16:48.351Z,51.41
2023-03-14T21:18:49.946Z,51.02
2023-03-14T21:20:53.382Z,51.50
2023-03-14T21:22:55.275Z,50.92
2023-03-14T21:24:56.872Z,51.07
2023-03-14T21:27:00.474Z,50.91
2023-03-14T21:29:04.516Z,51.12
2023-03-14T21:31:09.816Z,51.14
2023-03-14T21:33:12.795Z,52.08
2023-03-14T21:35:14.566Z,51.68
2023-03-14T21:37:16.202Z,51.69
2023-03-14T21:39:17.979Z,52.44
2023-03-14T21:41:19.666Z,52.09
2023-03-14T21:43:21.217Z,51.48
2023-03-14T21:45:24.024Z,51.32
2023-03-14T21:47:25.599Z,51.20
2023-03-14T21:49:28.508Z,51.06
2023-03-14T21:51:30.240Z,51.72
2023-03-14T21:53:32.044Z,51.50
2023-03-14T21:55:33.559Z,51.07
2023-03-14T21:57:35.339Z,51.53
2023-03-14T21:59:38.337Z,52.13
2023-03-14T22:01:49.006Z,51.51
2023-03-14T22:03:50.710Z,51.63
2023-03-14T22:05:53.677Z,51.77
2023-03-14T22:07:55.584Z,51.09
2023-03-14T22:09:57.240Z,52.18
2023-03-14T22:11:59.204Z,52.10
2023-03-14T22:14:01.170Z,51.74
2023-03-14T22:16:02.904Z,52.48
2023-03-14T22:18:04.553Z,52.77
2023-03-14T22:20:09.989Z,53.00
2023-03-14T22:22:12.984Z,52.80
2023-03-14T22:24:14.891Z,52.89
2023-03-14T22:26:16.963Z,52.61
2023-03-14T22:28:18.979Z,52.22
2023-03-14T22:30:20.644Z,52.49
2023-03-14T22:32:22.217Z,51.77
2023-03-14T22:34:23.779Z,52.36
2023-03-14T22:36:25.658Z,52.07
2023-03-14T22:38:28.628Z,51.97
2023-03-14T22:40:30.302Z,51.21
2023-03-14T22:42:32.027Z,51.61
2023-03-14T22:44:33.898Z,52.26
2023-03-14T22:46:35.655Z,52.74
2023-03-14T22:48:37.170Z,52.28
2023-03-14T22:50:39.086Z,52.33
2023-03-14T22:52:40.678Z,51.51
2023-03-14T22:54:43.686Z,51.43
2023-03-14T22:56:45.223Z,51.32
2023-03-14T22:58:46.908Z,51.69
2023-03-14T23:00:48.449Z,50.77
2023-03-14T23:02:50.121Z,51.69
2023-03-14T23:04:51.683Z,52.03
2023-03-14T23:06:53.229Z,52.43
2023-03-14T23:08:54.979Z,52.74
2023-03-14T23:11:01.794Z,52.23
2023-03-14T23:13:03.365Z,51.59
2023-03-14T23:15:05.683Z,52.21
2023-03-14T23:17:07.781Z,52.82
2023-03-14T23:19:09.446Z,52.25
2023-03-14T23:21:13.461Z,52.34
2023-03-14T23:23:15.052Z,52.96
2023-03-14T23:25:17.077Z,53.01
2023-03-14T23:27:19.960Z,53.04
2023-03-14T23:29:21.558Z,52.80
2023-03-14T23:31:23.237Z,52.76
2023-03-14T23:33:26.383Z,53.27
2023-03-14T23:35:28.086Z,52.82
2023-03-14T23:37:29.632Z,52.56
2023-03-14T23:39:31.204Z,52.88
2023-03-14T23:41:33.172Z,52.92
2023-03-14T23:43:36.147Z,53.61
2023-03-14T23:45:37.714Z,53.50
2023-03-14T23:47:39.293Z,53.03
2023-03-14T23:49:41.068Z,52.91
2023-03-14T23:51:42.592Z,53.53
2023-03-14T23:53:44.410Z,53.30
2023-03-14T23:55:45.953Z,51.91
2023-03-14T23:57:47.558Z,51.80
2023-03-14T23:59:50.559Z,52.29
